createdAt,value
2016-07-25T00:00:16.162Z,957.37
2016-07-25T00:01:16.157Z,957.37
2016-07-25T00:02:16.150Z,957.35
2016-07-25T00:03:16.150Z,957.37
2016-07-25T00:04:16.154Z,957.35
2016-07-25T00:05:16.142Z,957.38
2016-07-25T00:06:16.143Z,957.38
2016-07-25T00:07:16.146Z,957.4
2016-07-25T00:08:16.142Z,957.38
2016-07-25T00:09:16.146Z,957.39
2016-07-25T00:10:16.146Z,957.41
2016-07-25T00:11:16.142Z,957.42
2016-07-25T00:12:16.137Z,957.42
2016-07-25T00:13:16.139Z,957.41
2016-07-25T00:14:16.142Z,957.36
2016-07-25T00:15:16.140Z,957.35
2016-07-25T00:16:16.150Z,957.29
2016-07-25T00:17:16.142Z,957.35
2016-07-25T00:18:16.128Z,957.29
2016-07-25T00:19:16.133Z,957.26
2016-07-25T00:20:16.125Z,957.27
2016-07-25T00:21:16.137Z,957.28
2016-07-25T00:22:16.126Z,957.27
2016-07-25T00:23:16.135Z,957.3
2016-07-25T00:24:16.127Z,957.27
2016-07-25T00:25:16.123Z,957.27
2016-07-25T00:26:16.123Z,957.26
2016-07-25T00:27:16.123Z,957.26
2016-07-25T00:28:16.126Z,957.28
2016-07-25T00:29:16.118Z,957.28
2016-07-25T00:30:16.111Z,957.24
2016-07-25T00:31:16.116Z,957.25
2016-07-25T00:32:16.120Z,957.24
2016-07-25T00:33:16.109Z,957.24
2016-07-25T00:34:16.114Z,957.23
2016-07-25T00:35:16.113Z,957.24
2016-07-25T00:36:16.109Z,957.23
2016-07-25T00:37:16.109Z,957.23
2016-07-25T00:38:16.103Z,957.22
2016-07-25T00:39:16.114Z,957.26
2016-07-25T00:40:16.104Z,957.25
2016-07-25T00:41:16.102Z,957.26
2016-07-25T00:42:16.102Z,957.2
2016-07-25T00:43:16.101Z,957.23
2016-07-25T00:44:16.096Z,957.24
2016-07-25T00:45:16.099Z,957.23
2016-07-25T00:46:16.093Z,957.21
2016-07-25T00:47:16.107Z,957.19
2016-07-25T00:48:16.105Z,957.16
2016-07-25T00:49:16.093Z,957.17
2016-07-25T00:50:16.092Z,957.13
2016-07-25T00:51:16.091Z,957.15
2016-07-25T00:52:16.092Z,957.11
2016-07-25T00:53:16.086Z,957.1
2016-07-25T00:54:16.091Z,957.15
2016-07-25T00:55:16.086Z,957.12
2016-07-25T00:56:16.080Z,957.12
2016-07-25T00:57:16.087Z,957.12
2016-07-25T00:58:16.079Z,957.13
2016-07-25T00:59:16.079Z,957.13
2016-07-25T01:00:16.086Z,957.1
2016-07-25T01:01:16.075Z,957.15
2016-07-25T01:02:16.077Z,957.15
2016-07-25T01:03:16.072Z,957.16
2016-07-25T01:04:16.076Z,957.13
2016-07-25T01:05:16.230Z,957.16
2016-07-25T01:06:16.073Z,957.15
2016-07-25T01:07:16.076Z,957.15
2016-07-25T01:08:16.073Z,957.17
2016-07-25T01:09:16.070Z,957.2
2016-07-25T01:10:16.069Z,957.21
2016-07-25T01:11:16.076Z,957.24
2016-07-25T01:12:16.078Z,957.2
2016-07-25T01:13:16.061Z,957.21
2016-07-25T01:14:16.059Z,957.2
2016-07-25T01:15:16.063Z,957.2
2016-07-25T01:16:16.055Z,957.19
2016-07-25T01:17:16.055Z,957.18
2016-07-25T01:18:16.058Z,957.16
2016-07-25T01:19:16.057Z,957.16
2016-07-25T01:20:16.057Z,957.08
2016-07-25T01:21:16.049Z,957.1
2016-07-25T01:22:16.052Z,957.11
2016-07-25T01:23:16.050Z,957.08
2016-07-25T01:24:16.049Z,957.08
2016-07-25T01:25:16.044Z,957.11
2016-07-25T01:26:16.048Z,957.12
2016-07-25T01:27:16.042Z,957.1
2016-07-25T01:28:16.051Z,957.1
2016-07-25T01:29:16.056Z,957.11
2016-07-25T01:30:16.039Z,957.14
2016-07-25T01:31:16.039Z,957.12
2016-07-25T01:32:16.037Z,957.13
2016-07-25T01:33:16.032Z,957.09
2016-07-25T01:34:16.044Z,957.09
2016-07-25T01:35:16.043Z,957.11
2016-07-25T01:36:16.031Z,957.12
2016-07-25T01:37:16.030Z,957.14
2016-07-25T01:38:16.037Z,957.16
2016-07-25T01:39:16.030Z,957.16
2016-07-25T01:40:16.031Z,957.15
2016-07-25T01:41:16.023Z,957.16
2016-07-25T01:42:16.023Z,957.15
2016-07-25T01:43:16.021Z,957.15
2016-07-25T01:44:16.028Z,957.18
2016-07-25T01:45:16.031Z,957.16
2016-07-25T01:46:16.023Z,957.16
2016-07-25T01:47:16.026Z,957.21
2016-07-25T01:48:16.018Z,957.17
2016-07-25T01:49:16.011Z,957.21
2016-07-25T01:50:16.017Z,957.17
2016-07-25T01:51:16.019Z,957.22
2016-07-25T01:52:16.018Z,957.19
2016-07-25T01:53:16.007Z,957.19
2016-07-25T01:54:16.007Z,957.22
2016-07-25T01:55:16.004Z,957.22
2016-07-25T01:56:16.006Z,957.24
2016-07-25T01:57:16.003Z,957.23
2016-07-25T01:58:16.005Z,957.2
2016-07-25T01:59:16.007Z,957.22
2016-07-25T02:00:16.000Z,957.22
2016-07-25T02:01:16.001Z,957.2
2016-07-25T02:02:16.002Z,957.2
2016-07-25T02:03:16.002Z,957.16
2016-07-25T02:04:15.999Z,957.15
2016-07-25T02:05:15.991Z,957.17
2016-07-25T02:06:15.997Z,957.12
2016-07-25T02:07:15.990Z,957.12
2016-07-25T02:08:15.992Z,957.11
2016-07-25T02:09:15.990Z,957.14
2016-07-25T02:10:15.990Z,957.12
2016-07-25T02:11:15.990Z,957.14
2016-07-25T02:12:15.985Z,957.12
2016-07-25T02:13:15.991Z,957.1
2016-07-25T02:14:15.980Z,957.1
2016-07-25T02:15:15.985Z,957.12
2016-07-25T02:16:15.971Z,957.11
2016-07-25T02:17:15.972Z,957.12
2016-07-25T02:18:15.975Z,957.14
2016-07-25T02:19:15.967Z,957.11
2016-07-25T02:20:15.973Z,957.12
2016-07-25T02:21:15.979Z,957.16
2016-07-25T02:22:15.968Z,957.12
2016-07-25T02:23:15.966Z,957.12
2016-07-25T02:24:15.968Z,957.12
2016-07-25T02:25:15.967Z,957.1
2016-07-25T02:26:15.958Z,957.09
2016-07-25T02:27:15.956Z,957.07
2016-07-25T02:28:15.954Z,957.07
2016-07-25T02:29:15.963Z,957.04
2016-07-25T02:30:15.954Z,957.03
2016-07-25T02:31:15.959Z,957.02
2016-07-25T02:32:15.951Z,957.06
2016-07-25T02:33:15.950Z,957.03
2016-07-25T02:34:15.953Z,957.07
2016-07-25T02:35:15.952Z,957.07
2016-07-25T02:36:15.954Z,957.07
2016-07-25T02:37:15.949Z,957.08
2016-07-25T02:38:15.948Z,957.05
2016-07-25T02:39:15.942Z,957.05
2016-07-25T02:40:15.938Z,957
2016-07-25T02:41:15.943Z,957.01
2016-07-25T02:42:15.938Z,957.01
2016-07-25T02:43:15.940Z,957.04
2016-07-25T02:44:15.934Z,957.02
2016-07-25T02:45:16.090Z,957.01
2016-07-25T02:46:15.940Z,957.03
2016-07-25T02:47:15.929Z,957.03
2016-07-25T02:48:15.936Z,957.03
2016-07-25T02:49:15.923Z,957.02
2016-07-25T02:50:15.923Z,957.04
2016-07-25T02:51:15.927Z,957.06
2016-07-25T02:52:15.920Z,957
2016-07-25T02:53:15.924Z,957.03
2016-07-25T02:54:15.924Z,957.05
2016-07-25T02:55:15.915Z,957.02
2016-07-25T02:56:15.915Z,957.05
2016-07-25T02:57:15.918Z,957.02
2016-07-25T02:58:15.907Z,957.04
2016-07-25T02:59:15.910Z,957.06
2016-07-25T03:00:15.907Z,957.07
2016-07-25T03:01:15.903Z,957.05
2016-07-25T03:02:15.898Z,957.06
2016-07-25T03:03:15.905Z,957.04
2016-07-25T03:04:15.899Z,957.09
2016-07-25T03:05:15.892Z,957.06
2016-07-25T03:06:15.892Z,957.08
2016-07-25T03:07:15.893Z,957.1
2016-07-25T03:08:15.888Z,957.13
2016-07-25T03:09:15.888Z,957.09
2016-07-25T03:10:15.882Z,957.09
2016-07-25T03:11:15.886Z,957.08
2016-07-25T03:12:15.880Z,957.07
2016-07-25T03:13:15.877Z,957.1
2016-07-25T03:14:15.875Z,957.1
2016-07-25T03:15:15.875Z,957.11
2016-07-25T03:16:15.869Z,957.08
2016-07-25T03:17:15.873Z,957.1
2016-07-25T03:18:15.869Z,957.11
2016-07-25T03:19:15.873Z,957.07
2016-07-25T03:20:15.866Z,957.06
2016-07-25T03:21:15.861Z,957.05
2016-07-25T03:22:15.859Z,957.08
2016-07-25T03:23:15.865Z,957.08
2016-07-25T03:24:15.854Z,957.09
2016-07-25T03:25:15.856Z,957.11
2016-07-25T03:26:15.849Z,957.11
2016-07-25T03:27:15.851Z,957.15
2016-07-25T03:28:15.849Z,957.12
2016-07-25T03:29:15.853Z,957.14
2016-07-25T03:30:15.851Z,957.09
2016-07-25T03:31:15.844Z,957.11
2016-07-25T03:32:15.839Z,957.11
2016-07-25T03:33:15.844Z,957.06
2016-07-25T03:34:15.837Z,957.03
2016-07-25T03:35:15.838Z,957.06
2016-07-25T03:36:15.828Z,957.05
2016-07-25T03:37:15.828Z,957.07
2016-07-25T03:38:15.832Z,957.08
2016-07-25T03:39:15.825Z,957.09
2016-07-25T03:40:15.833Z,957.06
2016-07-25T03:41:15.836Z,957.08
2016-07-25T03:42:15.920Z,957.1
2016-07-25T03:43:16.014Z,957.1
2016-07-25T03:44:15.878Z,957.09
2016-07-25T03:45:15.878Z,957.12
2016-07-25T03:46:15.877Z,957.11
2016-07-25T03:47:15.878Z,957.09
2016-07-25T03:48:16.005Z,957.06
2016-07-25T03:49:16.005Z,957.04
2016-07-25T03:50:16.014Z,957.05
2016-07-25T03:51:16.022Z,957.1
2016-07-25T03:52:15.874Z,957.07
2016-07-25T03:53:15.993Z,957.05
2016-07-25T03:54:15.989Z,957.09
2016-07-25T03:55:15.876Z,957.09
2016-07-25T03:56:15.864Z,957.1
2016-07-25T03:57:15.858Z,957.1
2016-07-25T03:58:15.862Z,957.13
2016-07-25T03:59:15.858Z,957.09
2016-07-25T04:00:15.858Z,957.07
2016-07-25T04:01:16.097Z,957.09
2016-07-25T04:02:15.992Z,957.1
2016-07-25T04:03:16.003Z,957.1
2016-07-25T04:04:15.851Z,957.1
2016-07-25T04:05:15.971Z,957.13
2016-07-25T04:06:15.981Z,957.12
2016-07-25T04:07:15.970Z,957.15
2016-07-25T04:08:15.838Z,957.12
2016-07-25T04:09:15.961Z,957.16
2016-07-25T04:10:15.963Z,957.13
2016-07-25T04:11:15.956Z,957.12
2016-07-25T04:12:15.835Z,957.13
2016-07-25T04:13:15.837Z,957.07
2016-07-25T04:14:15.985Z,957.05
2016-07-25T04:15:15.833Z,957.05
2016-07-25T04:16:15.838Z,957.02
2016-07-25T04:17:15.951Z,957.07
2016-07-25T04:18:15.830Z,957.03
2016-07-25T04:19:15.949Z,957.06
2016-07-25T04:20:15.948Z,957.07
2016-07-25T04:21:15.955Z,957.05
2016-07-25T04:22:15.955Z,957.03
2016-07-25T04:23:15.817Z,957.06
2016-07-25T04:24:15.943Z,957.03
2016-07-25T04:25:15.818Z,957.05
2016-07-25T04:26:15.816Z,957.02
2016-07-25T04:27:15.818Z,957.08
2016-07-25T04:28:15.812Z,957.06
2016-07-25T04:29:15.815Z,957.05
2016-07-25T04:30:15.812Z,957.04
2016-07-25T04:31:15.809Z,957.05
2016-07-25T04:32:15.813Z,957.07
2016-07-25T04:33:15.811Z,957.06
2016-07-25T04:34:15.928Z,957.01
2016-07-25T04:35:15.805Z,957.03
2016-07-25T04:36:15.808Z,957.05
2016-07-25T04:37:15.805Z,956.99
2016-07-25T04:38:15.801Z,957.01
2016-07-25T04:39:15.807Z,956.99
2016-07-25T04:40:15.800Z,957.02
2016-07-25T04:41:15.803Z,957.03
2016-07-25T04:42:15.919Z,957.02
2016-07-25T04:43:15.839Z,957.07
2016-07-25T04:44:15.918Z,957.02
2016-07-25T04:45:15.815Z,957.05
2016-07-25T04:46:15.817Z,957.05
2016-07-25T04:47:15.813Z,957.04
2016-07-25T04:48:15.816Z,957
2016-07-25T04:49:15.815Z,957.01
2016-07-25T04:50:15.811Z,957.04
2016-07-25T04:51:15.789Z,957.02
2016-07-25T04:52:15.800Z,957
2016-07-25T04:53:15.799Z,957
2016-07-25T04:54:15.928Z,956.98
2016-07-25T04:55:15.816Z,957.01
2016-07-25T04:56:15.829Z,957
2016-07-25T04:57:15.814Z,957.01
2016-07-25T04:58:15.803Z,957.01
2016-07-25T04:59:15.802Z,957
2016-07-25T05:00:15.806Z,956.99
2016-07-25T05:01:15.802Z,957.06
2016-07-25T05:02:15.805Z,957.06
2016-07-25T05:03:15.805Z,957.04
2016-07-25T05:04:15.900Z,957.03
2016-07-25T05:05:15.788Z,957.02
2016-07-25T05:06:15.799Z,957.01
2016-07-25T05:07:15.816Z,957.02
2016-07-25T05:08:15.811Z,957.03
2016-07-25T05:09:15.936Z,957.06
2016-07-25T05:10:15.797Z,957.05
2016-07-25T05:11:15.800Z,957.03
2016-07-25T05:12:15.798Z,957.04
2016-07-25T05:13:15.796Z,957.04
2016-07-25T05:14:15.798Z,957.04
2016-07-25T05:15:15.788Z,957.01
2016-07-25T05:16:15.893Z,957.04
2016-07-25T05:17:15.783Z,957.06
2016-07-25T05:18:15.782Z,957.05
2016-07-25T05:19:15.793Z,957.03
2016-07-25T05:20:15.793Z,957.06
2016-07-25T05:21:15.806Z,957.02
2016-07-25T05:22:15.789Z,957.02
2016-07-25T05:23:15.782Z,957.01
2016-07-25T05:24:15.783Z,957.01
2016-07-25T05:25:15.779Z,956.99
2016-07-25T05:26:15.784Z,956.98
2016-07-25T05:27:15.777Z,956.97
2016-07-25T05:28:15.780Z,956.97
2016-07-25T05:29:15.761Z,956.96
2016-07-25T05:30:15.768Z,956.99
2016-07-25T05:31:15.781Z,956.97
2016-07-25T05:32:15.790Z,956.94
2016-07-25T05:33:15.797Z,956.98
2016-07-25T05:34:15.795Z,956.99
2016-07-25T05:35:15.776Z,956.98
2016-07-25T05:36:15.776Z,956.95
2016-07-25T05:37:15.770Z,956.95
2016-07-25T05:38:15.773Z,957.01
2016-07-25T05:39:15.767Z,957.02
2016-07-25T05:40:15.767Z,956.98
2016-07-25T05:41:15.746Z,957.01
2016-07-25T05:42:15.748Z,956.99
2016-07-25T05:43:15.757Z,957.02
2016-07-25T05:44:15.748Z,957.03
2016-07-25T05:45:15.741Z,957.05
2016-07-25T05:46:15.742Z,957.03
2016-07-25T05:47:15.865Z,957.01
2016-07-25T05:48:15.744Z,957.01
2016-07-25T05:49:15.742Z,957.02
2016-07-25T05:50:15.739Z,957.01
2016-07-25T05:51:15.739Z,957.03
2016-07-25T05:52:15.740Z,957.03
2016-07-25T05:53:15.735Z,957.06
2016-07-25T05:54:15.742Z,957.05
2016-07-25T05:55:15.732Z,957.01
2016-07-25T05:56:15.861Z,957.02
2016-07-25T05:57:15.737Z,957.04
2016-07-25T05:58:15.858Z,957.04
2016-07-25T05:59:15.741Z,957.01
2016-07-25T06:00:15.860Z,957.07
2016-07-25T06:01:15.741Z,957.08
2016-07-25T06:02:15.738Z,957.09
2016-07-25T06:03:15.862Z,957.11
2016-07-25T06:04:15.742Z,957.11
2016-07-25T06:05:15.735Z,957.11
2016-07-25T06:06:15.984Z,957.14
2016-07-25T06:07:15.863Z,957.09
2016-07-25T06:08:15.741Z,957.13
2016-07-25T06:09:15.904Z,957.13
2016-07-25T06:10:15.744Z,957.1
2016-07-25T06:11:15.739Z,957.08
2016-07-25T06:12:15.739Z,957.14
2016-07-25T06:13:15.737Z,957.04
2016-07-25T06:14:15.858Z,957.11
2016-07-25T06:15:15.863Z,957.1
2016-07-25T06:16:15.748Z,957.1
2016-07-25T06:17:15.747Z,957.09
2016-07-25T06:18:15.746Z,957.11
2016-07-25T06:19:15.974Z,957.11
2016-07-25T06:20:15.886Z,957.15
2016-07-25T06:21:15.895Z,957.13
2016-07-25T06:22:15.899Z,957.13
2016-07-25T06:23:15.746Z,957.14
2016-07-25T06:24:15.748Z,957.17
2016-07-25T06:25:15.749Z,957.15
2016-07-25T06:26:15.744Z,957.17
2016-07-25T06:27:15.880Z,957.2
2016-07-25T06:28:15.756Z,957.15
2016-07-25T06:29:15.756Z,957.19
2016-07-25T06:30:15.752Z,957.19
2016-07-25T06:31:15.962Z,957.18
2016-07-25T06:32:15.868Z,957.21
2016-07-25T06:33:15.879Z,957.2
2016-07-25T06:34:15.879Z,957.24
2016-07-25T06:35:15.888Z,957.24
2016-07-25T06:36:15.896Z,957.2
2016-07-25T06:37:16.006Z,957.26
2016-07-25T06:38:15.916Z,957.25
2016-07-25T06:39:15.920Z,957.25
2016-07-25T06:40:15.891Z,957.25
2016-07-25T06:41:15.773Z,957.22
2016-07-25T06:42:15.772Z,957.22
2016-07-25T06:43:15.772Z,957.2
2016-07-25T06:44:15.855Z,957.25
2016-07-25T06:45:15.858Z,957.24
2016-07-25T06:47:15.884Z,957.21
2016-07-25T06:48:15.987Z,957.23
2016-07-25T06:49:15.892Z,957.2
2016-07-25T06:50:15.898Z,957.19
2016-07-25T06:51:15.907Z,957.21
2016-07-25T06:52:15.911Z,957.19
2016-07-25T06:53:15.925Z,957.17
2016-07-25T06:54:15.929Z,957.15
2016-07-25T06:55:15.934Z,957.16
2016-07-25T06:56:15.838Z,957.16
2016-07-25T06:57:15.855Z,957.17
2016-07-25T06:58:15.860Z,957.15
2016-07-25T06:59:15.855Z,957.15
2016-07-25T07:00:15.868Z,957.18
2016-07-25T07:01:15.976Z,957.2
2016-07-25T07:02:15.883Z,957.19
2016-07-25T07:03:15.892Z,957.21
2016-07-25T07:05:15.900Z,957.19
2016-07-25T07:06:15.911Z,957.22
2016-07-25T07:07:16.021Z,957.19
2016-07-25T07:08:15.831Z,957.18
2016-07-25T07:09:15.831Z,957.18
2016-07-25T07:10:15.836Z,957.2
2016-07-25T07:11:15.851Z,957.18
2016-07-25T07:12:15.962Z,957.21
2016-07-25T07:13:15.864Z,957.23
2016-07-25T07:14:15.878Z,957.18
2016-07-25T07:15:15.874Z,957.23
2016-07-25T07:16:15.881Z,957.21
2016-07-25T07:17:15.889Z,957.2
2016-07-25T07:18:15.900Z,957.2
2016-07-25T07:19:15.915Z,957.21
2016-07-25T07:20:15.913Z,957.18
2016-07-25T07:21:15.963Z,957.24
2016-07-25T07:22:15.966Z,957.27
2016-07-25T07:23:15.979Z,957.26
2016-07-25T07:24:15.983Z,957.26
2016-07-25T07:25:15.988Z,957.28
2016-07-25T07:26:15.992Z,957.28
2016-07-25T07:27:15.976Z,957.27
2016-07-25T07:28:15.869Z,957.3
2016-07-25T07:29:15.868Z,957.29
2016-07-25T07:30:15.880Z,957.27
2016-07-25T07:31:15.886Z,957.34
2016-07-25T07:32:15.898Z,957.26
2016-07-25T07:33:15.949Z,957.31
2016-07-25T07:34:15.948Z,957.32
2016-07-25T07:35:15.959Z,957.32
2016-07-25T07:36:15.966Z,957.33
2016-07-25T07:37:15.979Z,957.31
2016-07-25T07:38:15.980Z,957.35
2016-07-25T07:39:15.993Z,957.34
2016-07-25T07:40:15.995Z,957.31
2016-07-25T07:41:16.005Z,957.36
2016-07-25T07:42:16.007Z,957.39
2016-07-25T07:43:16.016Z,957.33
2016-07-25T07:44:16.026Z,957.31
2016-07-25T07:45:16.027Z,957.31
2016-07-25T07:46:15.934Z,957.29
2016-07-25T07:47:15.943Z,957.23
2016-07-25T07:48:15.956Z,957.29
2016-07-25T07:49:15.955Z,957.3
2016-07-25T07:50:15.963Z,957.29
2016-07-25T07:51:15.975Z,957.27
2016-07-25T07:52:15.979Z,957.26
2016-07-25T07:53:15.991Z,957.29
2016-07-25T07:54:15.991Z,957.29
2016-07-25T07:55:16.005Z,957.26
2016-07-25T07:56:16.006Z,957.26
2016-07-25T07:57:16.020Z,957.31
2016-07-25T07:58:16.259Z,957.26
2016-07-25T07:59:15.999Z,957.25
2016-07-25T08:00:15.994Z,957.25
2016-07-25T08:01:16.004Z,957.26
2016-07-25T08:02:15.951Z,957.27
2016-07-25T08:03:15.960Z,957.26
2016-07-25T08:05:16.007Z,957.29
2016-07-25T08:06:15.976Z,957.29
2016-07-25T08:07:15.991Z,957.28
2016-07-25T08:08:15.994Z,957.27
2016-07-25T08:09:16.014Z,957.28
2016-07-25T08:10:15.983Z,957.25
2016-07-25T08:11:15.972Z,957.27
2016-07-25T08:12:15.984Z,957.29
2016-07-25T08:13:15.995Z,957.25
2016-07-25T08:14:15.984Z,957.29
2016-07-25T08:15:16.012Z,957.28
2016-07-25T08:16:15.990Z,957.3
2016-07-25T08:17:16.019Z,957.32
2016-07-25T08:18:16.036Z,957.27
2016-07-25T08:19:16.030Z,957.29
2016-07-25T08:20:16.037Z,957.29
2016-07-25T08:21:16.050Z,957.29
2016-07-25T08:22:16.067Z,957.27
2016-07-25T08:23:15.997Z,957.32
2016-07-25T08:24:16.002Z,957.3
2016-07-25T08:25:16.003Z,957.34
2016-07-25T08:26:16.005Z,957.34
2016-07-25T08:27:16.029Z,957.35
2016-07-25T08:28:16.014Z,957.37
2016-07-25T08:29:16.019Z,957.36
2016-07-25T08:30:16.024Z,957.34
2016-07-25T08:31:16.037Z,957.34
2016-07-25T08:32:16.034Z,957.32
2016-07-25T08:33:16.041Z,957.35
2016-07-25T08:34:16.046Z,957.34
2016-07-25T08:35:16.045Z,957.38
2016-07-25T08:36:16.050Z,957.36
2016-07-25T08:37:16.060Z,957.39
2016-07-25T08:38:16.073Z,957.39
2016-07-25T08:39:16.073Z,957.35
2016-07-25T08:40:16.076Z,957.35
2016-07-25T08:41:16.087Z,957.34
2016-07-25T08:42:16.090Z,957.33
2016-07-25T08:43:16.083Z,957.33
2016-07-25T08:44:16.095Z,957.35
2016-07-25T08:45:16.092Z,957.36
2016-07-25T08:46:16.097Z,957.38
2016-07-25T08:47:16.107Z,957.38
2016-07-25T08:48:16.107Z,957.36
2016-07-25T08:49:16.115Z,957.36
2016-07-25T08:50:16.120Z,957.34
2016-07-25T08:51:16.127Z,957.34
2016-07-25T08:52:16.134Z,957.28
2016-07-25T08:53:16.132Z,957.3
2016-07-25T08:54:16.141Z,957.35
2016-07-25T08:55:16.145Z,957.29
2016-07-25T08:56:16.149Z,957.28
2016-07-25T08:57:16.156Z,957.26
2016-07-25T08:58:16.163Z,957.26
2016-07-25T08:59:16.168Z,957.27
2016-07-25T09:00:16.170Z,957.23
2016-07-25T09:01:16.178Z,957.28
2016-07-25T09:02:16.180Z,957.27
2016-07-25T09:03:16.187Z,957.25
2016-07-25T09:04:16.190Z,957.3
2016-07-25T09:05:16.196Z,957.29
2016-07-25T09:06:16.198Z,957.24
2016-07-25T09:07:16.206Z,957.23
2016-07-25T09:08:16.205Z,957.22
2016-07-25T09:09:16.218Z,957.25
2016-07-25T09:10:16.221Z,957.26
2016-07-25T09:11:16.220Z,957.21
2016-07-25T09:12:16.231Z,957.21
2016-07-25T09:13:16.229Z,957.21
2016-07-25T09:14:16.238Z,957.19
2016-07-25T09:15:16.238Z,957.17
2016-07-25T09:16:16.242Z,957.18
2016-07-25T09:17:16.247Z,957.16
2016-07-25T09:18:16.259Z,957.18
2016-07-25T09:19:16.257Z,957.15
2016-07-25T09:20:16.269Z,957.16
2016-07-25T09:21:16.266Z,957.16
2016-07-25T09:22:16.273Z,957.15
2016-07-25T09:23:16.275Z,957.18
2016-07-25T09:24:16.279Z,957.16
2016-07-25T09:25:16.322Z,957.19
2016-07-25T09:26:16.286Z,957.19
2016-07-25T09:27:16.296Z,957.18
2016-07-25T09:28:16.294Z,957.21
2016-07-25T09:29:16.301Z,957.17
2016-07-25T09:30:16.307Z,957.21
2016-07-25T09:31:16.306Z,957.17
2016-07-25T09:32:16.312Z,957.2
2016-07-25T09:33:16.314Z,957.17
2016-07-25T09:34:16.319Z,957.16
2016-07-25T09:35:16.324Z,957.18
2016-07-25T09:36:16.330Z,957.14
2016-07-25T09:37:16.332Z,957.12
2016-07-25T09:38:16.336Z,957.13
2016-07-25T09:39:16.349Z,957.14
2016-07-25T09:40:16.349Z,957.1
2016-07-25T09:41:16.349Z,957.12
2016-07-25T09:42:16.357Z,957.11
2016-07-25T09:43:16.363Z,957.13
2016-07-25T09:44:16.367Z,957.11
2016-07-25T09:45:16.374Z,957.1
2016-07-25T09:46:16.372Z,957.13
2016-07-25T09:47:16.378Z,957.12
2016-07-25T09:48:16.378Z,957.14
2016-07-25T09:49:16.386Z,957.13
2016-07-25T09:50:16.391Z,957.1
2016-07-25T09:51:16.396Z,957.08
2016-07-25T09:52:16.401Z,957.09
2016-07-25T09:53:16.399Z,957.07
2016-07-25T09:54:16.411Z,957.06
2016-07-25T09:55:16.410Z,957.05
2016-07-25T09:56:16.413Z,957.05
2016-07-25T09:57:16.422Z,957.06
2016-07-25T09:58:16.430Z,957.06
2016-07-25T09:59:16.423Z,957.04
2016-07-25T10:00:16.427Z,957.1
2016-07-25T10:01:16.441Z,957.08
2016-07-25T10:02:16.445Z,957.13
2016-07-25T10:03:16.442Z,957.06
2016-07-25T10:04:16.446Z,957.11
2016-07-25T10:05:16.450Z,957.1
2016-07-25T10:06:16.453Z,957.07
2016-07-25T10:07:16.465Z,957.1
2016-07-25T10:08:16.469Z,957.16
2016-07-25T10:09:16.474Z,957.12
2016-07-25T10:10:16.475Z,957.11
2016-07-25T10:11:16.478Z,957.14
2016-07-25T10:12:16.492Z,957.11
2016-07-25T10:13:16.481Z,957.09
2016-07-25T10:14:16.494Z,957.12
2016-07-25T10:15:16.496Z,957.14
2016-07-25T10:16:16.502Z,957.07
2016-07-25T10:17:16.508Z,957.04
2016-07-25T10:18:16.506Z,957.04
2016-07-25T10:19:16.514Z,957.03
2016-07-25T10:20:16.521Z,957.01
2016-07-25T10:21:16.522Z,957.01
2016-07-25T10:22:16.524Z,957.03
2016-07-25T10:23:16.530Z,957.03
2016-07-25T10:24:16.536Z,957
2016-07-25T10:25:16.543Z,957.01
2016-07-25T10:26:16.544Z,956.97
2016-07-25T10:27:16.546Z,956.98
2016-07-25T10:28:16.547Z,956.96
2016-07-25T10:29:16.549Z,956.98
2016-07-25T10:30:16.562Z,956.99
2016-07-25T10:31:16.560Z,956.97
2016-07-25T10:32:16.570Z,957.02
2016-07-25T10:33:16.574Z,957.01
2016-07-25T10:34:16.574Z,956.97
2016-07-25T10:35:16.576Z,956.99
2016-07-25T10:36:16.586Z,956.97
2016-07-25T10:37:16.586Z,956.96
2016-07-25T10:38:16.596Z,956.96
2016-07-25T10:39:16.600Z,956.98
2016-07-25T10:40:16.607Z,956.99
2016-07-25T10:41:16.610Z,956.96
2016-07-25T10:42:16.613Z,956.93
2016-07-25T10:43:16.610Z,956.94
2016-07-25T10:44:16.616Z,956.99
2016-07-25T10:45:16.626Z,956.99
2016-07-25T10:46:16.626Z,956.97
2016-07-25T10:47:16.632Z,957
2016-07-25T10:48:16.640Z,957
2016-07-25T10:49:16.639Z,957.01
2016-07-25T10:50:16.652Z,956.97
2016-07-25T10:51:16.652Z,957.01
2016-07-25T10:52:16.654Z,957.01
2016-07-25T10:53:16.661Z,957
2016-07-25T10:54:16.664Z,956.96
2016-07-25T10:55:16.670Z,956.99
2016-07-25T10:56:16.669Z,956.98
2016-07-25T10:57:16.675Z,956.91
2016-07-25T10:58:16.680Z,956.95
2016-07-25T10:59:16.683Z,956.92
2016-07-25T11:00:16.691Z,956.94
2016-07-25T11:01:16.691Z,956.94
2016-07-25T11:02:16.703Z,956.93
2016-07-25T11:03:16.712Z,956.99
2016-07-25T11:04:16.712Z,956.98
2016-07-25T11:05:16.718Z,956.95
2016-07-25T11:06:16.736Z,956.95
2016-07-25T11:07:16.729Z,956.99
2016-07-25T11:08:16.726Z,956.98
2016-07-25T11:09:16.737Z,956.95
2016-07-25T11:10:16.736Z,956.92
2016-07-25T11:11:16.747Z,956.94
2016-07-25T11:12:16.746Z,956.94
2016-07-25T11:13:16.751Z,956.94
2016-07-25T11:14:16.757Z,956.94
2016-07-25T11:15:16.760Z,956.92
2016-07-25T11:16:16.758Z,956.95
2016-07-25T11:17:16.770Z,956.93
2016-07-25T11:18:16.772Z,956.95
2016-07-25T11:19:16.781Z,956.94
2016-07-25T11:20:16.785Z,956.91
2016-07-25T11:21:16.798Z,956.95
2016-07-25T11:22:16.787Z,956.89
2016-07-25T11:23:16.796Z,956.92
2016-07-25T11:24:16.794Z,956.94
2016-07-25T11:25:16.804Z,956.93
2016-07-25T11:26:16.808Z,956.9
2016-07-25T11:27:16.815Z,956.93
2016-07-25T11:28:16.816Z,956.94
2016-07-25T11:29:16.823Z,956.95
2016-07-25T11:30:16.829Z,956.97
2016-07-25T11:31:16.824Z,956.92
2016-07-25T11:32:16.835Z,956.94
2016-07-25T11:33:16.843Z,956.96
2016-07-25T11:34:16.839Z,956.98
2016-07-25T11:35:16.850Z,956.97
2016-07-25T11:36:16.846Z,956.94
2016-07-25T11:37:16.863Z,956.9
2016-07-25T11:38:16.862Z,956.91
2016-07-25T11:39:16.866Z,956.92
2016-07-25T11:40:16.863Z,956.94
2016-07-25T11:41:16.874Z,956.94
2016-07-25T11:42:16.871Z,956.93
2016-07-25T11:43:16.886Z,956.92
2016-07-25T11:44:16.880Z,956.95
2016-07-25T11:45:16.883Z,956.93
2016-07-25T11:46:16.889Z,956.94
2016-07-25T11:47:16.893Z,956.93
2016-07-25T11:48:16.898Z,956.92
2016-07-25T11:49:16.903Z,956.95
2016-07-25T11:50:16.911Z,956.92
2016-07-25T11:51:16.916Z,956.95
2016-07-25T11:52:16.915Z,956.98
2016-07-25T11:53:16.921Z,956.95
2016-07-25T11:54:16.923Z,956.95
2016-07-25T11:55:16.930Z,956.96
2016-07-25T11:56:16.932Z,956.95
2016-07-25T11:57:16.946Z,956.89
2016-07-25T11:58:16.943Z,956.89
2016-07-25T11:59:16.954Z,956.88
2016-07-25T12:00:16.955Z,956.84
2016-07-25T12:01:16.961Z,956.86
2016-07-25T12:02:16.960Z,956.85
2016-07-25T12:03:16.966Z,956.86
2016-07-25T12:04:16.979Z,956.82
2016-07-25T12:05:16.978Z,956.86
2016-07-25T12:06:16.981Z,956.84
2016-07-25T12:07:16.987Z,956.87
2016-07-25T12:08:16.985Z,956.83
2016-07-25T12:09:16.989Z,956.83
2016-07-25T12:10:16.994Z,956.83
2016-07-25T12:11:16.999Z,956.85
2016-07-25T12:12:17.005Z,956.84
2016-07-25T12:13:17.012Z,956.82
2016-07-25T12:14:17.018Z,956.8
2016-07-25T12:15:17.022Z,956.82
2016-07-25T12:16:17.023Z,956.81
2016-07-25T12:17:17.028Z,956.81
2016-07-25T12:18:17.030Z,956.79
2016-07-25T12:19:17.042Z,956.78
2016-07-25T12:20:17.043Z,956.78
2016-07-25T12:21:17.052Z,956.78
2016-07-25T12:22:17.048Z,956.81
2016-07-25T12:23:17.059Z,956.78
2016-07-25T12:24:17.056Z,956.79
2016-07-25T12:25:17.068Z,956.78
2016-07-25T12:26:17.065Z,956.77
2016-07-25T12:27:17.070Z,956.77
2016-07-25T12:28:17.076Z,956.76
2016-07-25T12:29:17.084Z,956.73
2016-07-25T12:30:17.089Z,956.76
2016-07-25T12:31:17.093Z,956.7
2016-07-25T12:32:17.088Z,956.71
2016-07-25T12:33:17.096Z,956.74
2016-07-25T12:34:17.098Z,956.72